Kezdőlap
METAR-TAF:

METAR-TAF

Repülőterek :

Grenoble, Franciaország

földrajzi szélesség: 45-22N, földrajzi hosszúság: 005-20E, magasság: 384 m

Jelenlegi meteorológiai megfigyelések

A jelentés 35 perccel ezelõtt készült, 19:00 UTC
Kelet-délkeleti szél 5 kt
Hőmérséklet 5°C
Páratartalom 75%
Légköri nyomás 1033 hPa
Látótávolság 10 km, vagy több
felhőtlen 1500 m magasságban, és nincs gomolyfelhõ

METAR: LFLS 221900Z AUTO 11005KT CAVOK 05/01 Q1033 NOSIG

Idő: 20:35 (19:35 UTC)

Előrejelzés

A jelentés 5 órával és 35 perccel ezelõtt készült, 14:00 UTC
Az előrejelzés 22-én 15 óra UTC és 23-én 15 óra UTC között érvényes
Keleti szél 5 kt
Látótávolság 10 km, vagy több
felhőtlen 1500 m magasságban, és nincs gomolyfelhõ

TAF: LFLS 221400Z 2215/2315 09005KT CAVOK

Meteorológiai megfigyelések és előrejelzések több, mint 4000 repülőtéren (METAR és TAF jelentéseket).

A térképen piros és sárga pontok jelzik az elérhető meteorológiai állomásokat.

Mozgassa az egeret a pont fölött, hogy megjelenjen az állomás neve.

Azután kattintson az időjárási megfigyelések és előrejelzések megtekintéséhez.

A térkép megváltoztatása: kattintson a fekete keresztel jelölt zöld gombra ráközelítéshez, a vonallal jelölt zöld gombra távolításhoz, vagy a zöld nyilakra a szomszédos térképek eléréséhez.


METAR-TAF: